createdAt,value
2019-05-11T00:00:23.888Z,9.79
2019-05-11T00:02:26.131Z,9.77
2019-05-11T00:04:28.157Z,9.66
2019-05-11T00:06:30.187Z,9.66
2019-05-11T00:08:32.379Z,9.58
2019-05-11T00:10:34.428Z,9.62
2019-05-11T00:12:38.447Z,9.59
2019-05-11T00:14:40.618Z,9.57
2019-05-11T00:16:42.622Z,9.65
2019-05-11T00:18:44.915Z,9.69
2019-05-11T00:20:47.222Z,9.64
2019-05-11T00:22:51.996Z,9.63
2019-05-11T00:24:54.201Z,9.62
2019-05-11T00:26:56.776Z,9.69
2019-05-11T00:28:58.927Z,9.58
2019-05-11T00:31:03.778Z,9.53
2019-05-11T00:33:06.020Z,9.55
2019-05-11T00:35:08.013Z,9.52
2019-05-11T00:37:10.045Z,9.51
2019-05-11T00:39:12.237Z,9.51
2019-05-11T00:41:14.233Z,9.53
2019-05-11T00:43:16.284Z,9.49
2019-05-11T00:45:18.401Z,9.42
2019-05-11T00:47:20.589Z,9.39
2019-05-11T00:49:22.644Z,9.31
2019-05-11T00:51:24.786Z,9.34
2019-05-11T00:53:26.937Z,9.27
2019-05-11T00:55:29.043Z,9.29
2019-05-11T00:57:31.182Z,9.40
2019-05-11T00:59:33.169Z,9.33
2019-05-11T01:01:35.358Z,9.38
2019-05-11T01:03:37.584Z,9.45
2019-05-11T01:05:39.689Z,9.52
2019-05-11T01:07:41.714Z,9.50
2019-05-11T01:09:44.068Z,9.52
2019-05-11T01:11:46.012Z,9.48
2019-05-11T01:13:48.057Z,9.50
2019-05-11T01:15:50.255Z,9.52
2019-05-11T01:17:52.299Z,9.47
2019-05-11T01:19:54.423Z,9.33
2019-05-11T01:21:56.750Z,9.32
2019-05-11T01:23:58.759Z,9.33
2019-05-11T01:26:00.800Z,9.39
2019-05-11T01:28:03.381Z,9.33
2019-05-11T01:30:07.073Z,9.26
2019-05-11T01:32:09.112Z,9.29
2019-05-11T01:34:11.577Z,9.30
2019-05-11T01:36:13.739Z,9.27
2019-05-11T01:38:15.757Z,9.26
2019-05-11T01:40:18.175Z,9.24
2019-05-11T01:42:19.738Z,9.20
2019-05-11T01:44:21.838Z,9.22
2019-05-11T01:46:24.057Z,9.20
2019-05-11T01:48:26.042Z,9.22
2019-05-11T01:50:28.442Z,9.21
2019-05-11T01:52:30.507Z,9.12
2019-05-11T01:54:32.622Z,9.11
2019-05-11T01:56:34.636Z,9.12
2019-05-11T01:58:36.834Z,9.13
2019-05-11T02:00:38.877Z,9.14
2019-05-11T02:02:40.901Z,9.14
2019-05-11T02:04:43.329Z,9.01
2019-05-11T02:06:46.292Z,9.01
2019-05-11T02:08:48.601Z,9.08
2019-05-11T02:10:50.933Z,9.05
2019-05-11T02:12:52.928Z,8.99
2019-05-11T02:14:54.970Z,8.98
2019-05-11T02:16:57.348Z,8.89
2019-05-11T02:18:59.167Z,8.87
2019-05-11T02:21:01.165Z,8.87
2019-05-11T02:23:04.451Z,8.90
2019-05-11T02:25:07.309Z,8.86
2019-05-11T02:27:09.392Z,8.87
2019-05-11T02:29:11.757Z,8.81
2019-05-11T02:31:13.767Z,8.78
2019-05-11T02:33:15.779Z,8.71
2019-05-11T02:35:17.958Z,8.71
2019-05-11T02:37:20.144Z,8.74
2019-05-11T02:39:22.495Z,8.70
2019-05-11T02:41:35.583Z,8.70
2019-05-11T02:43:28.559Z,8.75
2019-05-11T02:45:41.514Z,8.78
2019-05-11T02:47:43.855Z,8.62
2019-05-11T02:49:45.886Z,8.70
2019-05-11T02:51:49.700Z,8.72
2019-05-11T02:53:52.773Z,8.67
2019-05-11T02:55:54.817Z,8.66
2019-05-11T02:57:56.839Z,8.74
2019-05-11T02:59:58.911Z,8.60
2019-05-11T03:02:01.004Z,8.64
2019-05-11T03:04:03.204Z,8.71
2019-05-11T03:06:06.592Z,8.64
2019-05-11T03:08:08.881Z,8.66
2019-05-11T03:10:11.452Z,8.68
2019-05-11T03:12:13.689Z,8.72
2019-05-11T03:14:15.693Z,8.76
2019-05-11T03:16:17.771Z,8.67
2019-05-11T03:18:21.096Z,8.63
2019-05-11T03:20:23.103Z,8.72
2019-05-11T03:22:25.457Z,8.71
2019-05-11T03:24:27.808Z,8.61
2019-05-11T03:26:30.079Z,8.48
2019-05-11T03:28:32.144Z,8.34
2019-05-11T03:30:34.414Z,8.34
2019-05-11T03:32:36.472Z,8.54
2019-05-11T03:34:38.489Z,8.53
2019-05-11T03:36:40.714Z,8.55
2019-05-11T03:38:42.776Z,8.47
2019-05-11T03:40:44.793Z,8.53
2019-05-11T03:42:47.766Z,8.49
2019-05-11T03:44:49.815Z,8.47
2019-05-11T03:46:51.772Z,8.42
2019-05-11T03:48:54.077Z,8.43
2019-05-11T03:50:56.171Z,8.47
2019-05-11T03:52:58.151Z,8.44
2019-05-11T03:55:00.520Z,8.48
2019-05-11T03:57:02.084Z,8.51
2019-05-11T03:59:04.307Z,8.48
2019-05-11T04:01:06.364Z,8.54
2019-05-11T04:03:08.477Z,8.49
2019-05-11T04:05:10.455Z,8.47
2019-05-11T04:07:12.847Z,8.57
2019-05-11T04:09:14.422Z,8.49
2019-05-11T04:11:16.477Z,8.56
2019-05-11T04:13:18.824Z,8.48
2019-05-11T04:17:36.015Z,8.69
2019-05-11T04:19:38.337Z,8.62
2019-05-11T04:21:40.323Z,8.52
2019-05-11T04:23:42.360Z,8.58
2019-05-11T04:25:44.929Z,8.58
2019-05-11T04:27:47.082Z,8.65
2019-05-11T04:29:49.090Z,8.74
2019-05-11T04:31:51.824Z,8.69
2019-05-11T04:33:53.837Z,8.70
2019-05-11T04:35:56.035Z,8.73
2019-05-11T04:37:58.313Z,8.70
2019-05-11T04:40:00.320Z,8.82
2019-05-11T04:42:02.441Z,8.89
2019-05-11T04:44:04.713Z,8.91
2019-05-11T04:46:06.730Z,9.01
2019-05-11T04:48:08.963Z,9.03
2019-05-11T04:50:11.625Z,9.04
2019-05-11T04:52:13.662Z,9.07
2019-05-11T04:56:16.477Z,9.21
2019-05-11T04:58:18.599Z,9.20
2019-05-11T05:00:21.201Z,9.12
2019-05-11T05:02:27.189Z,9.12
2019-05-11T05:04:28.701Z,9.30
2019-05-11T05:06:30.686Z,9.26
2019-05-11T05:08:32.938Z,9.16
2019-05-11T05:10:34.951Z,9.21
2019-05-11T05:12:36.925Z,9.31
2019-05-11T05:14:39.130Z,9.24
2019-05-11T05:16:41.345Z,9.10
2019-05-11T05:18:43.406Z,9.20
2019-05-11T05:20:45.840Z,9.29
2019-05-11T05:22:47.401Z,9.35
2019-05-11T05:24:49.376Z,9.42
2019-05-11T05:26:51.600Z,9.35
2019-05-11T05:28:53.796Z,9.42
2019-05-11T05:30:55.795Z,9.40
2019-05-11T05:32:58.101Z,9.47
2019-05-11T05:35:00.224Z,9.51
2019-05-11T05:37:02.223Z,9.57
2019-05-11T05:39:08.828Z,9.63
2019-05-11T05:41:10.321Z,9.50
2019-05-11T05:43:25.587Z,9.47
2019-05-11T05:45:16.503Z,9.53
2019-05-11T05:47:18.536Z,9.56
2019-05-11T05:49:20.532Z,9.71
2019-05-11T05:51:23.204Z,9.64
2019-05-11T05:53:26.121Z,9.81
2019-05-11T05:55:28.113Z,9.80
2019-05-11T05:57:30.320Z,9.86
2019-05-11T05:59:32.487Z,9.85
2019-05-11T06:01:34.490Z,9.80
2019-05-11T06:03:37.930Z,10.00
2019-05-11T06:05:40.143Z,10.01
2019-05-11T06:07:42.580Z,10.04
2019-05-11T06:09:44.493Z,10.14
2019-05-11T06:11:46.680Z,10.19
2019-05-11T06:13:48.683Z,10.17
2019-05-11T06:15:51.029Z,10.27
2019-05-11T06:17:53.517Z,10.34
2019-05-11T06:19:55.550Z,10.26
2019-05-11T06:21:57.923Z,10.33
2019-05-11T06:24:06.252Z,10.27
2019-05-11T06:26:04.125Z,10.24
2019-05-11T06:28:06.532Z,10.33
2019-05-11T06:30:08.351Z,10.40
2019-05-11T06:32:10.395Z,10.62
2019-05-11T06:34:14.900Z,10.51
2019-05-11T06:36:17.100Z,10.53
2019-05-11T06:38:18.951Z,10.67
2019-05-11T06:40:21.405Z,10.83
2019-05-11T06:42:22.988Z,11.02
2019-05-11T06:44:25.024Z,11.04
2019-05-11T06:46:27.378Z,11.12
2019-05-11T06:48:30.542Z,11.26
2019-05-11T06:50:32.663Z,11.23
2019-05-11T06:52:34.896Z,11.41
2019-05-11T06:54:38.046Z,11.50
2019-05-11T06:56:40.081Z,11.63
2019-05-11T06:58:45.446Z,11.59
2019-05-11T07:00:46.789Z,11.39
2019-05-11T07:02:48.801Z,11.61
2019-05-11T07:04:51.264Z,11.58
2019-05-11T07:06:52.980Z,11.81
2019-05-11T07:08:54.992Z,11.89
2019-05-11T07:10:57.346Z,12.11
2019-05-11T07:12:59.375Z,12.01
2019-05-11T07:15:01.419Z,12.07
2019-05-11T07:17:03.942Z,12.12
2019-05-11T07:19:05.484Z,12.25
2019-05-11T07:21:08.639Z,12.25
2019-05-11T07:23:10.944Z,12.30
2019-05-11T07:25:12.953Z,12.17
2019-05-11T07:27:15.519Z,12.18
2019-05-11T07:29:17.064Z,12.26
2019-05-11T07:31:19.257Z,12.04
2019-05-11T07:33:21.261Z,12.05
2019-05-11T07:35:23.524Z,12.37
2019-05-11T07:37:27.845Z,12.49
2019-05-11T07:39:30.678Z,12.29
2019-05-11T07:41:32.790Z,12.20
2019-05-11T07:43:35.182Z,12.30
2019-05-11T07:45:38.697Z,12.29
2019-05-11T07:47:40.925Z,12.17
2019-05-11T07:49:42.916Z,12.19
2019-05-11T07:51:45.009Z,12.38
2019-05-11T07:53:48.632Z,12.40
2019-05-11T07:55:51.125Z,12.61
2019-05-11T07:57:53.168Z,12.99
2019-05-11T07:59:57.883Z,12.36
2019-05-11T08:01:59.988Z,12.53
2019-05-11T08:04:02.001Z,12.96
2019-05-11T08:06:04.603Z,13.04
2019-05-11T08:08:08.567Z,12.94
2019-05-11T08:10:10.710Z,13.05
2019-05-11T08:12:12.800Z,12.84
2019-05-11T08:14:15.009Z,12.80
2019-05-11T08:16:18.531Z,13.12
2019-05-11T08:18:21.061Z,13.71
2019-05-11T08:20:23.046Z,13.78
2019-05-11T08:22:25.037Z,13.55
2019-05-11T08:24:28.461Z,13.51
2019-05-11T08:26:30.735Z,13.89
2019-05-11T08:28:32.836Z,13.77
2019-05-11T08:30:37.987Z,13.88
2019-05-11T08:32:39.420Z,14.06
2019-05-11T08:34:41.401Z,13.62
2019-05-11T08:36:43.765Z,13.15
2019-05-11T08:38:48.101Z,12.97
2019-05-11T08:40:49.634Z,13.05
2019-05-11T08:42:51.795Z,13.13
2019-05-11T08:44:53.811Z,12.98
2019-05-11T08:46:58.049Z,13.07
2019-05-11T08:49:00.338Z,12.64
2019-05-11T08:51:03.197Z,12.90
2019-05-11T08:53:05.190Z,13.20
2019-05-11T08:55:08.421Z,13.54
2019-05-11T08:57:10.565Z,13.68
2019-05-11T08:59:12.833Z,13.74
2019-05-11T09:01:15.155Z,13.93
2019-05-11T09:03:18.026Z,13.56
2019-05-11T09:05:20.775Z,14.03
2019-05-11T09:07:24.220Z,14.34
2019-05-11T09:09:28.650Z,14.51
2019-05-11T09:11:30.783Z,14.63
2019-05-11T09:13:32.862Z,14.58
2019-05-11T09:15:39.811Z,14.62
2019-05-11T09:17:39.994Z,14.78
2019-05-11T09:19:42.415Z,14.66
2019-05-11T09:21:44.665Z,14.96
2019-05-11T09:23:48.653Z,14.99
2019-05-11T09:25:50.965Z,14.81
2019-05-11T09:27:53.005Z,14.94
2019-05-11T09:29:55.027Z,15.10
2019-05-11T09:31:58.203Z,15.32
2019-05-11T09:34:00.816Z,15.59
2019-05-11T09:36:02.829Z,15.60
2019-05-11T09:38:08.014Z,15.60
2019-05-11T09:40:10.570Z,15.51
2019-05-11T09:42:12.860Z,15.51
2019-05-11T09:44:15.056Z,15.61
2019-05-11T09:46:18.923Z,15.27
2019-05-11T09:48:21.119Z,15.32
2019-05-11T09:50:24.511Z,15.59
2019-05-11T09:52:32.451Z,15.33
2019-05-11T09:54:34.645Z,15.34
2019-05-11T09:56:38.161Z,15.47
2019-05-11T09:58:40.474Z,15.07
2019-05-11T10:00:42.521Z,15.12
2019-05-11T10:02:44.975Z,15.22
2019-05-11T10:04:48.443Z,15.28
2019-05-11T10:06:50.556Z,14.69
2019-05-11T10:08:52.794Z,14.93
2019-05-11T10:10:54.794Z,14.60
2019-05-11T10:12:58.778Z,14.57
2019-05-11T10:15:01.053Z,14.40
2019-05-11T10:17:02.858Z,14.73
2019-05-11T10:19:04.948Z,14.85
2019-05-11T10:21:08.126Z,15.19
2019-05-11T10:23:10.236Z,15.23
2019-05-11T10:25:12.490Z,14.77
2019-05-11T10:27:14.934Z,14.38
2019-05-11T10:29:18.329Z,14.64
2019-05-11T10:31:21.781Z,14.87
2019-05-11T10:33:24.299Z,14.99
2019-05-11T10:35:26.094Z,15.14
2019-05-11T10:37:28.449Z,14.50
2019-05-11T10:39:30.694Z,14.82
2019-05-11T10:41:32.706Z,15.00
2019-05-11T10:43:34.704Z,14.84
2019-05-11T10:45:37.900Z,15.00
2019-05-11T10:47:40.341Z,14.60
2019-05-11T10:49:42.376Z,14.84
2019-05-11T10:51:44.998Z,14.30
2019-05-11T10:53:51.286Z,14.57
2019-05-11T10:55:50.949Z,14.87
2019-05-11T10:57:52.941Z,14.25
2019-05-11T10:59:57.349Z,14.61
2019-05-11T11:01:59.247Z,14.52
2019-05-11T11:04:01.589Z,15.07
2019-05-11T11:06:03.822Z,14.38
2019-05-11T11:08:08.356Z,14.04
2019-05-11T11:10:10.742Z,14.42
2019-05-11T11:12:13.049Z,14.01
2019-05-11T11:14:15.054Z,13.75
2019-05-11T11:16:35.029Z,13.71
2019-05-11T11:18:22.309Z,14.15
2019-05-11T11:20:24.350Z,14.63
2019-05-11T11:22:38.935Z,14.18
2019-05-11T11:24:30.885Z,14.52
2019-05-11T11:26:32.914Z,13.92
2019-05-11T11:28:35.752Z,14.20
2019-05-11T11:30:37.997Z,14.38
2019-05-11T11:32:40.205Z,14.58
2019-05-11T11:34:42.547Z,14.11
2019-05-11T11:36:44.595Z,14.22
2019-05-11T11:38:47.913Z,14.09
2019-05-11T11:40:50.583Z,14.19
2019-05-11T11:42:52.834Z,14.02
2019-05-11T11:44:54.860Z,14.35
2019-05-11T11:46:59.098Z,14.68
2019-05-11T11:49:00.964Z,13.92
2019-05-11T11:51:04.079Z,13.75
2019-05-11T11:53:08.387Z,13.65
2019-05-11T11:55:10.610Z,13.84
2019-05-11T11:57:12.601Z,14.34
2019-05-11T11:59:17.826Z,13.96
2019-05-11T12:01:20.126Z,13.78
2019-05-11T12:03:23.814Z,13.56
2019-05-11T12:05:28.108Z,13.71
2019-05-11T12:07:31.157Z,13.90
2019-05-11T12:09:34.394Z,13.91
2019-05-11T12:11:38.019Z,14.10
2019-05-11T12:13:40.402Z,13.62
2019-05-11T12:15:42.461Z,13.26
2019-05-11T12:17:44.681Z,13.48
2019-05-11T12:19:47.800Z,13.55
2019-05-11T12:21:50.091Z,13.72
2019-05-11T12:23:52.460Z,13.66
2019-05-11T12:25:54.485Z,13.55
2019-05-11T12:27:57.726Z,13.42
2019-05-11T12:30:00.239Z,13.52
2019-05-11T12:32:04.783Z,13.65
2019-05-11T12:34:08.781Z,13.64
2019-05-11T12:36:12.899Z,13.83
2019-05-11T12:38:15.036Z,13.94
2019-05-11T12:40:18.096Z,13.72
2019-05-11T12:42:20.998Z,13.64
2019-05-11T12:44:28.166Z,13.82
2019-05-11T12:46:30.077Z,13.79
2019-05-11T12:48:32.417Z,14.02
2019-05-11T12:50:34.405Z,14.07
2019-05-11T12:52:38.271Z,13.85
2019-05-11T12:54:40.804Z,13.44
2019-05-11T12:56:42.532Z,13.72
2019-05-11T13:00:12.444Z,13.55
2019-05-11T13:02:14.685Z,13.57
2019-05-11T13:04:18.189Z,12.96
2019-05-11T13:06:20.576Z,12.87
2019-05-11T13:08:22.609Z,13.15
2019-05-11T13:10:24.752Z,13.33
2019-05-11T13:12:27.972Z,13.85
2019-05-11T13:14:30.126Z,13.59
2019-05-11T13:16:32.259Z,13.38
2019-05-11T13:18:34.576Z,13.65
2019-05-11T13:20:37.837Z,13.84
2019-05-11T13:22:40.060Z,13.59
2019-05-11T13:24:42.394Z,13.83
2019-05-11T13:26:44.488Z,13.77
2019-05-11T13:28:48.441Z,13.29
2019-05-11T13:30:52.670Z,12.76
2019-05-11T13:32:55.101Z,12.89
2019-05-11T13:34:58.410Z,12.87
2019-05-11T13:37:01.122Z,12.83
2019-05-11T13:39:04.741Z,13.19
2019-05-11T13:41:07.983Z,13.15
2019-05-11T13:43:10.478Z,13.19
2019-05-11T13:45:14.115Z,13.14
2019-05-11T13:47:17.994Z,13.23
2019-05-11T13:49:20.659Z,13.31
2019-05-11T13:51:22.674Z,13.19
2019-05-11T13:53:24.717Z,13.18
2019-05-11T13:55:28.690Z,13.14
2019-05-11T13:57:30.883Z,12.55
2019-05-11T13:59:32.932Z,12.49
2019-05-11T14:01:37.976Z,12.75
2019-05-11T14:03:43.874Z,12.65
2019-05-11T14:05:48.136Z,12.99
2019-05-11T14:07:50.398Z,13.11
2019-05-11T14:09:52.543Z,13.07
2019-05-11T14:11:54.645Z,12.85
2019-05-11T14:13:58.506Z,12.87
2019-05-11T14:16:00.676Z,13.01
2019-05-11T14:18:08.422Z,13.12
2019-05-11T14:20:09.275Z,13.25
2019-05-11T14:22:11.395Z,13.54
2019-05-11T14:24:13.410Z,13.42
2019-05-11T14:26:15.581Z,13.35
2019-05-11T14:28:18.093Z,13.28
2019-05-11T14:30:20.339Z,13.29
2019-05-11T14:32:22.602Z,13.57
2019-05-11T14:34:24.787Z,13.14
2019-05-11T14:36:28.170Z,13.44
2019-05-11T14:38:31.648Z,13.23
2019-05-11T14:40:33.700Z,13.05
2019-05-11T14:42:37.637Z,12.84
2019-05-11T14:44:39.889Z,13.20
2019-05-11T14:46:42.053Z,13.09
2019-05-11T14:48:44.462Z,12.93
2019-05-11T14:50:48.983Z,13.28
2019-05-11T14:52:50.935Z,13.58
2019-05-11T14:54:53.643Z,13.10
2019-05-11T14:56:55.957Z,12.96
2019-05-11T14:58:58.126Z,13.10
2019-05-11T15:01:00.221Z,13.10
2019-05-11T15:03:02.548Z,12.92
2019-05-11T15:05:05.253Z,13.03
2019-05-11T15:07:08.491Z,13.22
2019-05-11T15:09:10.894Z,12.52
2019-05-11T15:11:12.952Z,12.58
2019-05-11T15:13:15.041Z,12.57
2019-05-11T15:15:18.716Z,12.57
2019-05-11T15:17:21.335Z,12.83
2019-05-11T15:19:23.382Z,12.87
2019-05-11T15:21:27.920Z,13.01
2019-05-11T15:23:29.656Z,12.91
2019-05-11T15:25:32.655Z,12.46
2019-05-11T15:27:34.968Z,12.42
2019-05-11T15:29:37.782Z,12.31
2019-05-11T15:31:40.182Z,12.53
2019-05-11T15:33:42.412Z,12.85
2019-05-11T15:35:44.633Z,12.69
2019-05-11T15:37:47.941Z,13.13
2019-05-11T15:39:50.503Z,13.07
2019-05-11T15:42:05.697Z,12.83
2019-05-11T15:43:57.884Z,12.78
2019-05-11T15:46:00.578Z,12.93
2019-05-11T15:48:02.849Z,12.77
2019-05-11T15:50:05.151Z,12.84
2019-05-11T15:52:08.224Z,12.97
2019-05-11T15:54:10.541Z,12.89
2019-05-11T15:56:12.677Z,12.94
2019-05-11T15:58:14.900Z,12.94
2019-05-11T16:00:19.052Z,12.93
2019-05-11T16:02:21.104Z,12.54
2019-05-11T16:04:23.649Z,12.47
2019-05-11T16:06:25.465Z,12.85
2019-05-11T16:08:28.977Z,12.69
2019-05-11T16:10:31.195Z,12.46
2019-05-11T16:12:33.584Z,12.03
2019-05-11T16:14:38.199Z,12.09
2019-05-11T16:16:40.105Z,12.11
2019-05-11T16:18:44.068Z,12.28
2019-05-11T16:20:49.806Z,12.52
2019-05-11T16:22:50.350Z,12.36
2019-05-11T16:24:52.393Z,12.28
2019-05-11T16:26:54.482Z,12.30
2019-05-11T16:28:58.190Z,12.43
2019-05-11T16:31:00.350Z,12.47
2019-05-11T16:33:02.601Z,12.12
2019-05-11T16:35:05.439Z,12.15
2019-05-11T16:37:09.961Z,11.99
2019-05-11T16:39:12.299Z,12.27
2019-05-11T16:41:14.586Z,12.22
2019-05-11T16:43:18.991Z,12.13
2019-05-11T16:45:23.888Z,12.24
2019-05-11T16:47:25.072Z,12.15
2019-05-11T16:49:32.109Z,12.18
2019-05-11T16:51:31.157Z,11.98
2019-05-11T16:53:35.291Z,11.91
2019-05-11T16:55:37.807Z,11.86
2019-05-11T16:57:39.432Z,12.08
2019-05-11T16:59:42.064Z,12.10
2019-05-11T17:01:44.080Z,11.92
2019-05-11T17:03:48.132Z,11.82
2019-05-11T17:05:50.426Z,11.64
2019-05-11T17:07:52.547Z,11.74
2019-05-11T17:09:54.662Z,11.83
2019-05-11T17:11:57.864Z,11.94
2019-05-11T17:14:00.067Z,11.96
2019-05-11T17:16:02.316Z,11.93
2019-05-11T17:18:04.608Z,11.51
2019-05-11T17:20:08.064Z,11.51
2019-05-11T17:22:10.181Z,11.61
2019-05-11T17:24:12.547Z,11.61
2019-05-11T17:26:14.765Z,11.69
2019-05-11T17:28:17.094Z,11.98
2019-05-11T17:30:19.932Z,11.86
2019-05-11T17:32:22.076Z,11.60
2019-05-11T17:34:24.309Z,11.71
2019-05-11T17:36:27.932Z,11.72
2019-05-11T17:38:30.066Z,11.67
2019-05-11T17:40:32.120Z,11.40
2019-05-11T17:42:34.466Z,11.45
2019-05-11T17:44:39.264Z,11.58
2019-05-11T17:46:41.369Z,11.76
2019-05-11T17:48:43.703Z,11.68
2019-05-11T17:50:45.839Z,11.65
2019-05-11T17:52:48.119Z,11.77
2019-05-11T17:54:50.424Z,11.88
2019-05-11T17:56:52.765Z,11.67
2019-05-11T17:58:55.084Z,11.54
2019-05-11T18:00:58.854Z,11.44
2019-05-11T18:03:01.474Z,11.31
2019-05-11T18:05:04.218Z,11.17
2019-05-11T18:07:06.470Z,11.20
2019-05-11T18:09:08.844Z,11.20
2019-05-11T18:11:10.936Z,11.18
2019-05-11T18:13:13.310Z,11.22
2019-05-11T18:15:49.229Z,11.30
2019-05-11T18:17:58.574Z,11.22
2019-05-11T18:20:13.851Z,11.15
2019-05-11T18:22:04.203Z,11.19
2019-05-11T18:24:08.913Z,11.31
2019-05-11T18:26:10.626Z,11.31
2019-05-11T18:28:14.315Z,11.33
2019-05-11T18:30:17.047Z,11.02
2019-05-11T18:32:19.228Z,10.81
2019-05-11T18:34:21.353Z,10.83
2019-05-11T18:36:24.819Z,10.89
2019-05-11T18:38:27.656Z,11.04
2019-05-11T18:40:30.061Z,10.83
2019-05-11T18:42:32.113Z,10.88
2019-05-11T18:44:34.399Z,10.97
2019-05-11T18:46:39.103Z,10.91
2019-05-11T18:48:41.423Z,10.85
2019-05-11T18:50:43.969Z,10.89
2019-05-11T18:52:46.128Z,10.77
2019-05-11T18:54:48.781Z,10.75
2019-05-11T18:56:51.053Z,10.70
2019-05-11T18:58:53.146Z,10.58
2019-05-11T19:00:55.210Z,10.62
2019-05-11T19:02:58.164Z,10.61
2019-05-11T19:05:00.481Z,10.60
2019-05-11T19:07:14.259Z,10.55
2019-05-11T19:09:08.403Z,10.44
2019-05-11T19:11:10.556Z,10.43
2019-05-11T19:13:12.981Z,10.50
2019-05-11T19:15:15.341Z,10.52
2019-05-11T19:17:18.141Z,10.36
2019-05-11T19:19:20.408Z,10.44
2019-05-11T19:21:22.560Z,10.33
2019-05-11T19:23:25.041Z,10.42
2019-05-11T19:25:26.685Z,10.33
2019-05-11T19:27:28.968Z,10.38
2019-05-11T19:29:31.068Z,10.33
2019-05-11T19:31:33.243Z,10.20
2019-05-11T19:33:38.131Z,10.22
2019-05-11T19:35:40.326Z,10.25
2019-05-11T19:37:42.403Z,10.15
2019-05-11T19:39:47.681Z,10.09
2019-05-11T19:41:48.715Z,10.17
2019-05-11T19:43:50.896Z,10.14
2019-05-11T19:45:53.041Z,10.10
2019-05-11T19:47:57.589Z,10.07
2019-05-11T19:49:59.181Z,10.07
2019-05-11T19:52:01.468Z,10.02
2019-05-11T19:55:51.979Z,10.17
2019-05-11T19:57:54.461Z,10.08
2019-05-11T19:59:58.249Z,10.02
2019-05-11T20:02:01.150Z,10.03
2019-05-11T20:04:03.395Z,9.96
2019-05-11T20:06:05.538Z,9.89
2019-05-11T20:08:08.017Z,9.94
2019-05-11T20:10:10.503Z,9.92
2019-05-11T20:12:12.550Z,9.94
2019-05-11T20:14:14.994Z,9.99
2019-05-11T20:16:18.757Z,9.94
2019-05-11T20:18:21.945Z,9.94
2019-05-11T20:20:24.265Z,9.96
2019-05-11T20:22:28.161Z,9.92
2019-05-11T20:24:30.423Z,9.89
2019-05-11T20:26:32.507Z,9.89
2019-05-11T20:28:35.007Z,9.87
2019-05-11T20:30:36.686Z,9.86
2019-05-11T20:32:39.183Z,9.82
2019-05-11T20:34:41.367Z,9.87
2019-05-11T20:36:43.495Z,9.86
2019-05-11T20:38:47.654Z,9.87
2019-05-11T20:40:51.388Z,9.95
2019-05-11T20:42:52.951Z,10.02
2019-05-11T20:44:55.011Z,10.05
2019-05-11T20:46:58.059Z,10.08
2019-05-11T20:49:00.192Z,10.15
2019-05-11T20:51:02.688Z,10.18
2019-05-11T20:53:04.737Z,10.15
2019-05-11T20:55:08.912Z,10.08
2019-05-11T20:57:11.414Z,10.15
2019-05-11T20:59:14.324Z,10.08
2019-05-11T21:01:17.869Z,10.07
2019-05-11T21:03:20.305Z,10.14
2019-05-11T21:05:22.566Z,10.03
2019-05-11T21:07:24.684Z,10.12
2019-05-11T21:09:28.780Z,10.08
2019-05-11T21:11:33.374Z,10.15
2019-05-11T21:13:35.655Z,10.19
2019-05-11T21:15:38.455Z,10.13
2019-05-11T21:17:42.113Z,10.14
2019-05-11T21:19:44.008Z,10.15
2019-05-11T21:21:52.825Z,10.21
2019-05-11T21:23:51.159Z,10.09
2019-05-11T21:25:54.308Z,10.08
2019-05-11T21:27:57.969Z,10.13
2019-05-11T21:30:00.415Z,10.09
2019-05-11T21:32:02.641Z,10.12
2019-05-11T21:34:04.780Z,10.06
2019-05-11T21:36:08.828Z,10.01
2019-05-11T21:38:10.918Z,9.97
2019-05-11T21:40:13.206Z,9.91
2019-05-11T21:42:15.460Z,9.91
2019-05-11T21:44:18.867Z,9.92
2019-05-11T21:46:23.885Z,10.00
2019-05-11T21:48:28.048Z,9.96
2019-05-11T21:50:36.804Z,10.00
2019-05-11T21:52:39.082Z,9.92
2019-05-11T21:54:42.469Z,9.95
2019-05-11T21:56:44.536Z,9.90
2019-05-11T21:58:46.633Z,9.87
2019-05-11T22:00:49.281Z,9.89
2019-05-11T22:02:53.369Z,9.83
2019-05-11T22:04:55.691Z,9.83
2019-05-11T22:06:59.038Z,9.74
2019-05-11T22:09:01.049Z,9.75
2019-05-11T22:11:04.805Z,9.74
2019-05-11T22:13:07.172Z,9.77
2019-05-11T22:15:09.599Z,9.81
2019-05-11T22:17:11.951Z,9.85
2019-05-11T22:19:14.276Z,9.81
2019-05-11T22:21:18.614Z,9.82
2019-05-11T22:23:20.553Z,9.73
2019-05-11T22:25:22.722Z,9.69
2019-05-11T22:27:24.955Z,9.65
2019-05-11T22:29:28.635Z,9.61
2019-05-11T22:31:31.263Z,9.67
2019-05-11T22:33:33.591Z,9.67
2019-05-11T22:35:37.607Z,9.75
2019-05-11T22:37:39.704Z,9.73
2019-05-11T22:39:41.934Z,9.72
2019-05-11T22:41:44.039Z,9.69
2019-05-11T22:43:48.438Z,9.73
2019-05-11T22:45:50.174Z,9.76
2019-05-11T22:47:52.186Z,9.80
2019-05-11T22:49:54.536Z,9.74
2019-05-11T22:51:59.563Z,9.81
2019-05-11T22:54:00.524Z,9.89
2019-05-11T22:56:02.881Z,9.87
2019-05-11T22:58:04.560Z,9.83
2019-05-11T23:00:08.208Z,9.86
2019-05-11T23:02:12.439Z,9.87
2019-05-11T23:04:14.563Z,9.77
2019-05-11T23:06:18.043Z,9.81
2019-05-11T23:08:20.683Z,9.75
2019-05-11T23:10:22.217Z,9.76
2019-05-11T23:12:24.309Z,9.69
2019-05-11T23:14:28.253Z,9.63
2019-05-11T23:16:30.523Z,9.68
2019-05-11T23:18:32.537Z,9.64
2019-05-11T23:20:34.873Z,9.67
2019-05-11T23:22:56.130Z,9.60
2019-05-11T23:24:50.501Z,9.58
2019-05-11T23:26:52.735Z,9.63
2019-05-11T23:28:54.731Z,9.61
2019-05-11T23:30:58.265Z,9.65
2019-05-11T23:33:00.583Z,9.65
2019-05-11T23:35:02.640Z,9.67
2019-05-11T23:37:04.650Z,9.64
2019-05-11T23:39:09.030Z,9.64
2019-05-11T23:41:23.786Z,9.61
2019-05-11T23:43:14.997Z,9.58
2019-05-11T23:45:19.057Z,9.64
2019-05-11T23:47:21.292Z,9.69
2019-05-11T23:49:23.332Z,9.66
2019-05-11T23:51:28.055Z,9.64
2019-05-11T23:53:32.595Z,9.61
2019-05-11T23:55:34.621Z,9.59
2019-05-11T23:57:37.934Z,9.60
2019-05-11T23:59:41.267Z,9.59
